This is the latest recevied weather packets stored in our database for station/object IR1ZYZ-3. If no packets are shown the sender has not sent any weather packets the latest 10 day(s).
| Time | Temp. | Humidity | Pressure | Rain* | Wind** | Luminosity | Snow |
|---|---|---|---|---|---|---|---|
| 1778264682 | 17.22° C | 71% | 1015.9 hPa | - | - | - | - |
| 1778264075 | 17.22° C | 71% | 1015.8 hPa | - | - | - | - |
| 1778263471 | 17.78° C | 72% | 1015.8 hPa | - | - | - | - |
| 1778262866 | 17.78° C | 71% | 1015.7 hPa | - | - | - | - |
| 1778262260 | 17.78° C | 71% | 1015.6 hPa | - | - | - | - |
| 1778261655 | 17.78° C | 69% | 1015.5 hPa | - | - | - | - |
| 1778261050 | 18.33° C | 67% | 1015.4 hPa | - | - | - | - |
| 1778260444 | 18.89° C | 62% | 1015.3 hPa | - | - | - | - |
| 1778259839 | 20° C | 57% | 1015.1 hPa | - | - | - | - |
| 1778259234 | 20.56° C | 54% | 1015.1 hPa | - | - | - | - |
| 1778258629 | 22.22° C | 51% | 1014.9 hPa | - | - | - | - |
| 1778258024 | 21.11° C | 53% | 1014.9 hPa | - | - | - | - |
| 1778257418 | 22.78° C | 48% | 1014.7 hPa | - | - | - | - |
| 1778256813 | 22.22° C | 51% | 1014.7 hPa | - | - | - | - |
| 1778256207 | 21.67° C | 49% | 1014.7 hPa | - | - | - | - |
| 1778255603 | 27.22° C | 42% | 1014.2 hPa | - | - | - | - |
| 1778254998 | 27.22° C | 45% | 1014.1 hPa | - | - | - | - |
| 1778254392 | 25.56° C | 43% | 1014.2 hPa | - | - | - | - |
| 1778253787 | 25° C | 44% | 1014.4 hPa | - | - | - | - |
| 1778253181 | 23.89° C | 49% | 1014.6 hPa | - | - | - | - |
| 1778252576 | 25.56° C | 43% | 1014.3 hPa | - | - | - | - |
| 1778251971 | 27.78° C | 39% | 1014.1 hPa | - | - | - | - |
| 1778251366 | 28.33° C | 41% | 1014.2 hPa | - | - | - | - |
| 1778250759 | 28.89° C | 40% | 1014.2 hPa | - | - | - | - |
| 1778250154 | 28.89° C | 43% | 1014.1 hPa | - | - | - | - |
* Rain since midnight (hover to see other rain measurements)
** Current wind speed in m/s (hover to see current wind gust speed)